createdAt,value
2022-08-19T00:00:37.626Z,1.80
2022-08-19T00:03:40.871Z,1.00
2022-08-19T00:06:45.992Z,1.10
2022-08-19T00:09:49.474Z,1.10
2022-08-19T00:12:53.551Z,1.10
2022-08-19T00:16:06.563Z,1.20
2022-08-19T00:19:10.896Z,1.20
2022-08-19T00:22:13.763Z,1.00
2022-08-19T00:25:17.823Z,1.10
2022-08-19T00:28:22.205Z,1.13
2022-08-19T00:31:26.795Z,0.90
2022-08-19T00:34:30.167Z,0.70
2022-08-19T00:37:34.621Z,0.70
2022-08-19T00:40:38.211Z,0.70
2022-08-19T00:43:42.716Z,1.02
2022-08-19T00:46:55.378Z,1.52
2022-08-19T00:50:01.964Z,2.60
2022-08-19T00:53:05.817Z,0.88
2022-08-19T00:56:10.272Z,1.10
2022-08-19T00:59:16.360Z,0.98
2022-08-19T01:02:39.651Z,0.80
2022-08-19T01:05:45.169Z,0.50
2022-08-19T01:08:49.910Z,0.70
2022-08-19T01:11:53.903Z,0.50
2022-08-19T01:14:57.460Z,0.60
2022-08-19T01:18:09.362Z,0.70
2022-08-19T01:21:30.685Z,0.67
2022-08-19T01:24:34.603Z,6.95
2022-08-19T01:27:52.104Z,0.60
2022-08-19T01:30:57.136Z,0.60
2022-08-19T01:34:00.383Z,0.60
2022-08-19T01:37:12.627Z,0.40
2022-08-19T01:40:17.165Z,0.93
2022-08-19T01:43:21.339Z,0.40
2022-08-19T01:46:25.186Z,0.60
2022-08-19T01:49:28.173Z,0.70
2022-08-19T01:52:31.047Z,0.97
2022-08-19T01:55:35.121Z,0.80
2022-08-19T01:58:48.172Z,0.70
2022-08-19T02:01:51.343Z,0.60
2022-08-19T02:04:54.605Z,0.70
2022-08-19T02:07:58.755Z,0.70
2022-08-19T02:11:01.671Z,0.70
2022-08-19T02:14:07.229Z,0.60
2022-08-19T02:17:11.222Z,0.70
2022-08-19T02:20:15.584Z,0.70
2022-08-19T02:23:18.736Z,1.23
2022-08-19T02:26:21.922Z,1.20
2022-08-19T02:29:24.798Z,1.60
2022-08-19T02:32:28.786Z,0.90
2022-08-19T02:35:33.008Z,0.93
2022-08-19T02:38:36.897Z,1.77
2022-08-19T02:41:39.786Z,0.60
2022-08-19T02:44:43.047Z,1.17
2022-08-19T02:47:47.197Z,0.93
2022-08-19T02:51:02.501Z,1.38
2022-08-19T02:54:07.506Z,2.23
2022-08-19T02:57:10.614Z,1.20
2022-08-19T03:00:15.017Z,0.70
2022-08-19T03:03:20.658Z,0.80
2022-08-19T03:06:25.115Z,0.90
2022-08-19T03:09:29.073Z,1.30
2022-08-19T03:12:32.831Z,0.50
2022-08-19T03:15:36.364Z,0.80
2022-08-19T03:18:40.329Z,0.60
2022-08-19T03:21:46.189Z,0.60
2022-08-19T03:24:49.788Z,0.93
2022-08-19T03:27:53.411Z,0.50
2022-08-19T03:31:02.621Z,0.77
2022-08-19T03:34:08.154Z,0.70
2022-08-19T03:37:15.789Z,1.00
2022-08-19T03:40:20.882Z,1.03
2022-08-19T03:43:24.373Z,1.23
2022-08-19T03:46:31.875Z,1.10
2022-08-19T03:49:36.763Z,0.70
2022-08-19T03:52:45.425Z,0.75
2022-08-19T03:55:55.189Z,1.63
2022-08-19T03:59:01.106Z,0.70
2022-08-19T04:02:11.195Z,0.90
2022-08-19T04:05:15.919Z,0.90
2022-08-19T04:08:21.679Z,0.52
2022-08-19T04:11:43.479Z,1.07
2022-08-19T04:14:48.586Z,1.90
2022-08-19T04:17:52.250Z,0.70
2022-08-19T04:20:55.301Z,0.50
2022-08-19T04:23:59.531Z,1.15
2022-08-19T04:27:04.175Z,0.80
2022-08-19T04:30:08.400Z,0.70
2022-08-19T04:33:12.635Z,0.60
2022-08-19T04:36:22.406Z,0.50
2022-08-19T04:39:49.979Z,0.50
2022-08-19T04:42:55.534Z,0.90
2022-08-19T04:46:00.747Z,0.90
2022-08-19T04:49:13.211Z,0.90
2022-08-19T04:52:17.328Z,0.57
2022-08-19T04:55:20.737Z,0.80
2022-08-19T04:58:24.497Z,0.70
2022-08-19T05:01:31.460Z,1.10
2022-08-19T05:04:35.131Z,0.70
2022-08-19T05:07:38.716Z,0.90
2022-08-19T05:10:42.207Z,1.08
2022-08-19T05:13:46.362Z,0.90
2022-08-19T05:16:49.916Z,1.00
2022-08-19T05:20:11.752Z,1.73
2022-08-19T05:23:21.995Z,1.33
2022-08-19T05:26:27.487Z,1.63
2022-08-19T05:29:33.481Z,1.03
2022-08-19T05:32:41.282Z,1.00
2022-08-19T05:35:45.720Z,2.60
2022-08-19T13:36:29.212Z,1.52
2022-08-19T13:39:34.545Z,1.95
2022-08-19T13:42:38.633Z,1.58
2022-08-19T13:45:42.710Z,1.45
2022-08-19T13:48:45.968Z,1.60
2022-08-19T13:51:49.580Z,1.60
2022-08-19T13:54:52.825Z,1.40
2022-08-19T13:57:59.526Z,1.60
2022-08-19T14:01:03.716Z,1.50
2022-08-19T14:04:07.880Z,1.30
2022-08-19T14:07:11.891Z,1.17
2022-08-19T14:10:17.348Z,1.10
2022-08-19T14:13:23.912Z,1.08
2022-08-19T14:16:29.060Z,1.23
2022-08-19T14:19:32.314Z,1.10
2022-08-19T14:22:38.158Z,1.20
2022-08-19T14:25:41.899Z,1.15
2022-08-19T14:28:46.698Z,1.20
2022-08-19T14:31:50.781Z,1.33
2022-08-19T14:34:55.940Z,1.03
2022-08-19T14:37:59.981Z,1.23
2022-08-19T14:41:22.806Z,1.10
2022-08-19T14:44:26.854Z,2.00
2022-08-19T14:47:30.517Z,2.90
2022-08-19T14:50:38.609Z,2.97
2022-08-19T14:53:42.813Z,2.55
2022-08-19T14:56:46.876Z,1.45
2022-08-19T14:59:50.521Z,4.60
2022-08-19T15:02:56.393Z,4.35
2022-08-19T15:06:02.014Z,5.17
2022-08-19T15:19:15.302Z,2.00
2022-08-19T15:22:18.551Z,3.00
2022-08-19T15:25:22.579Z,3.40
2022-08-19T15:28:27.890Z,3.40
2022-08-19T15:31:35.881Z,2.70
2022-08-19T15:34:41.325Z,2.70
2022-08-19T15:37:45.067Z,1.92
2022-08-19T15:40:49.654Z,2.33
2022-08-19T15:43:54.459Z,2.80
2022-08-19T15:46:57.963Z,2.03
2022-08-19T15:50:01.445Z,1.80
2022-08-19T15:53:08.802Z,1.92
2022-08-19T15:56:12.770Z,1.70
2022-08-19T15:59:34.687Z,1.60
2022-08-19T16:03:01.930Z,1.60
2022-08-19T16:06:23.573Z,1.50
2022-08-19T16:09:29.692Z,1.48
2022-08-19T16:12:33.307Z,1.50
2022-08-19T16:15:36.486Z,1.40
2022-08-19T16:18:39.312Z,2.33
2022-08-19T16:21:46.060Z,2.00
2022-08-19T16:24:49.635Z,1.92
2022-08-19T16:28:07.320Z,1.30
2022-08-19T16:31:13.217Z,1.50
2022-08-19T16:34:16.917Z,1.80
2022-08-19T16:37:22.158Z,1.48
2022-08-19T16:40:26.025Z,1.52
2022-08-19T16:43:31.263Z,2.33
2022-08-19T16:46:35.171Z,1.33
2022-08-19T16:49:53.329Z,1.30
2022-08-19T16:52:59.231Z,1.30
2022-08-19T16:56:02.501Z,1.15
2022-08-19T16:59:07.087Z,1.10
2022-08-19T17:02:10.738Z,1.37
2022-08-19T17:05:15.913Z,1.17
2022-08-19T17:08:26.761Z,1.48
2022-08-19T17:11:33.414Z,1.75
2022-08-19T17:14:37.025Z,1.50
2022-08-19T17:17:40.223Z,1.20
2022-08-19T17:20:44.460Z,1.60
2022-08-19T17:23:48.965Z,1.27
2022-08-19T17:26:51.870Z,1.63
2022-08-19T17:29:54.843Z,1.57
2022-08-19T17:32:59.413Z,1.70
2022-08-19T17:36:05.161Z,1.80
2022-08-19T17:39:08.687Z,1.92
2022-08-19T17:42:12.734Z,2.10
2022-08-19T17:45:16.395Z,1.60
2022-08-19T17:48:19.547Z,2.37
2022-08-19T17:51:23.935Z,1.60
2022-08-19T17:54:32.381Z,1.60
2022-08-19T17:57:41.197Z,1.33
2022-08-19T18:00:54.040Z,1.47
2022-08-19T18:03:58.968Z,1.87
2022-08-19T18:07:07.138Z,1.75
2022-08-19T18:10:11.665Z,1.60
2022-08-19T18:13:17.577Z,1.17
2022-08-19T18:16:22.699Z,1.70
2022-08-19T18:19:40.831Z,1.80
2022-08-19T18:22:48.232Z,1.52
2022-08-19T18:25:53.259Z,1.20
2022-08-19T18:28:57.707Z,1.50
2022-08-19T18:32:00.928Z,1.47
2022-08-19T18:35:11.146Z,2.10
2022-08-19T18:38:38.670Z,1.55
2022-08-19T18:42:01.665Z,1.65
2022-08-19T18:45:24.826Z,1.55
2022-08-19T18:48:47.632Z,1.93
2022-08-19T18:51:51.868Z,1.73
2022-08-19T18:54:54.723Z,1.42
2022-08-19T18:57:58.738Z,1.75
2022-08-19T19:01:27.124Z,1.40
2022-08-19T19:04:37.558Z,1.70
2022-08-19T19:07:42.324Z,1.43
2022-08-19T19:10:45.386Z,1.70
2022-08-19T19:13:50.265Z,4.03
2022-08-19T19:16:54.111Z,4.25
2022-08-19T19:19:57.901Z,2.27
2022-08-19T19:23:01.099Z,1.43
2022-08-19T19:26:05.493Z,1.88
2022-08-19T19:29:09.255Z,1.77
2022-08-19T19:32:19.760Z,1.45
2022-08-19T19:35:23.327Z,1.73
2022-08-19T19:38:26.545Z,1.50
2022-08-19T19:41:30.423Z,1.80
2022-08-19T19:44:34.678Z,1.55
2022-08-19T19:47:38.021Z,1.55
2022-08-19T19:50:41.055Z,1.60
2022-08-19T19:53:44.211Z,1.50
2022-08-19T19:56:50.899Z,1.38
2022-08-19T19:59:54.735Z,1.50
2022-08-19T20:02:58.548Z,1.73
2022-08-19T20:06:02.162Z,1.70
2022-08-19T20:09:08.688Z,1.30
2022-08-19T20:12:12.317Z,1.33
2022-08-19T20:15:15.503Z,1.67
2022-08-19T20:18:18.952Z,1.88
2022-08-19T20:21:23.034Z,1.53
2022-08-19T20:24:33.120Z,1.60
2022-08-19T20:27:38.948Z,2.13
2022-08-19T20:30:46.734Z,1.65
2022-08-19T20:33:51.975Z,1.58
2022-08-19T20:36:55.597Z,2.00
2022-08-19T20:39:58.621Z,1.90
2022-08-19T20:43:02.728Z,1.60
2022-08-19T20:46:07.050Z,1.55
2022-08-19T20:49:10.286Z,1.70
2022-08-19T20:52:14.758Z,1.70
2022-08-19T20:55:18.470Z,1.70
2022-08-19T20:58:25.758Z,1.55
2022-08-19T21:01:29.375Z,2.45
2022-08-19T21:04:33.882Z,17.02
2022-08-19T21:07:39.438Z,20.97
2022-08-19T21:10:43.543Z,18.50
2022-08-19T21:13:47.159Z,18.08
2022-08-19T21:16:51.349Z,6.07
2022-08-19T21:19:54.763Z,3.58
2022-08-19T21:22:59.129Z,3.60
2022-08-19T21:26:03.046Z,3.47
2022-08-19T21:29:07.568Z,3.47
2022-08-19T21:32:14.135Z,2.90
2022-08-19T21:35:19.071Z,3.20
2022-08-19T21:38:22.939Z,2.70
2022-08-19T21:41:26.848Z,2.37
2022-08-19T21:44:30.547Z,2.85
2022-08-19T21:47:33.873Z,3.05
2022-08-19T21:50:37.536Z,2.75
2022-08-19T21:53:41.777Z,2.20
2022-08-19T21:56:47.685Z,2.20
2022-08-19T21:59:51.938Z,2.25
2022-08-19T22:02:54.922Z,2.20
2022-08-19T22:05:59.386Z,2.30
2022-08-19T22:09:02.331Z,2.40
2022-08-19T22:12:11.664Z,2.27
2022-08-19T22:15:15.563Z,2.20
2022-08-19T22:18:22.564Z,2.47
2022-08-19T22:21:39.712Z,2.47
2022-08-19T22:24:44.653Z,2.10
2022-08-19T22:27:47.925Z,2.00
2022-08-19T22:30:51.322Z,2.03
2022-08-19T22:33:54.909Z,1.80
2022-08-19T22:36:58.347Z,1.70
2022-08-19T22:40:05.504Z,1.60
2022-08-19T22:43:15.722Z,2.50
2022-08-19T22:46:19.546Z,2.08
2022-08-19T22:49:22.401Z,1.95
2022-08-19T22:52:26.290Z,1.75
2022-08-19T22:55:31.484Z,1.77
2022-08-19T22:58:37.235Z,1.70
2022-08-19T23:01:44.426Z,1.80
2022-08-19T23:04:48.272Z,2.08
2022-08-19T23:07:52.976Z,1.98
2022-08-19T23:10:57.378Z,2.20
2022-08-19T23:14:00.958Z,1.83
2022-08-19T23:17:05.882Z,1.70
2022-08-19T23:20:12.308Z,2.30
2022-08-19T23:23:20.294Z,2.05
